Kortcamp, Illinois
Current Conditions -  °F | °C
As of 12:55 AM on Sunday 26 Oct 2014 (Local Time) from K3LF Reporting Station
Clear Clear  
Wind Chill: 53°   Ceiling: Unl
Heat Index: 53°   Visibility: 10mi
Dew Point: 43°   Wind: 6mph
Humidity: 69%   Direction: 360°N
Pressure: 30.03"   Gusts: NA
Location:  39.1415°N, 89.5029°W
Report Text: K3LF 260555Z AUTO 36005KT 10SM CLR 12/06 A3003 RMK AO2 T01160060 10191 20113 402580113
Loading
Personal Weather Stations






























Interactive Weather Map New forecast layout! Learn more

10-Day Weather Forecast

Advertisements
Track Severe Weather on mobile